sensor_id;sensor_type;location;lat;lon;timestamp;P1;durP1;ratioP1;P2;durP2;ratioP2
2620;SDS011;1320;48.128;11.592;2023-05-07T00:01:08;14.47;;;7.83;;
2620;SDS011;1320;48.128;11.592;2023-05-07T00:03:34;8.43;;;7.40;;
2620;SDS011;1320;48.128;11.592;2023-05-07T00:06:00;8.70;;;7.63;;
2620;SDS011;1320;48.128;11.592;2023-05-07T00:08:25;9.80;;;7.83;;
2620;SDS011;1320;48.128;11.592;2023-05-07T00:10:51;11.60;;;7.73;;
2620;SDS011;1320;48.128;11.592;2023-05-07T00:13:17;15.03;;;6.90;;
2620;SDS011;1320;48.128;11.592;2023-05-07T00:15:42;10.50;;;8.40;;
2620;SDS011;1320;48.128;11.592;2023-05-07T00:18:08;8.60;;;7.13;;
2620;SDS011;1320;48.128;11.592;2023-05-07T00:20:33;8.70;;;7.80;;
2620;SDS011;1320;48.128;11.592;2023-05-07T00:22:59;15.53;;;8.33;;
2620;SDS011;1320;48.128;11.592;2023-05-07T00:25:25;6.97;;;6.13;;
2620;SDS011;1320;48.128;11.592;2023-05-07T00:27:50;10.17;;;7.03;;
2620;SDS011;1320;48.128;11.592;2023-05-07T00:30:16;9.97;;;7.70;;
2620;SDS011;1320;48.128;11.592;2023-05-07T00:32:42;9.37;;;7.47;;
2620;SDS011;1320;48.128;11.592;2023-05-07T00:35:10;9.47;;;7.23;;
2620;SDS011;1320;48.128;11.592;2023-05-07T00:37:36;12.40;;;6.87;;
2620;SDS011;1320;48.128;11.592;2023-05-07T00:40:02;14.03;;;8.27;;
2620;SDS011;1320;48.128;11.592;2023-05-07T00:42:29;10.03;;;6.40;;
2620;SDS011;1320;48.128;11.592;2023-05-07T00:44:57;8.93;;;7.97;;
2620;SDS011;1320;48.128;11.592;2023-05-07T00:47:23;8.43;;;6.63;;
2620;SDS011;1320;48.128;11.592;2023-05-07T00:49:50;9.30;;;7.90;;
2620;SDS011;1320;48.128;11.592;2023-05-07T00:52:16;9.50;;;7.83;;
2620;SDS011;1320;48.128;11.592;2023-05-07T00:54:44;8.20;;;6.83;;
2620;SDS011;1320;48.128;11.592;2023-05-07T00:57:10;8.00;;;7.00;;
2620;SDS011;1320;48.128;11.592;2023-05-07T00:59:36;10.93;;;8.77;;
2620;SDS011;1320;48.128;11.592;2023-05-07T01:02:03;9.57;;;7.70;;
2620;SDS011;1320;48.128;11.592;2023-05-07T01:04:28;9.60;;;8.60;;
2620;SDS011;1320;48.128;11.592;2023-05-07T01:06:54;9.37;;;7.80;;
2620;SDS011;1320;48.128;11.592;2023-05-07T01:09:21;9.70;;;7.00;;
2620;SDS011;1320;48.128;11.592;2023-05-07T01:11:49;8.23;;;7.10;;
2620;SDS011;1320;48.128;11.592;2023-05-07T01:14:21;7.47;;;6.70;;
2620;SDS011;1320;48.128;11.592;2023-05-07T01:16:47;7.97;;;7.00;;
2620;SDS011;1320;48.128;11.592;2023-05-07T01:19:16;11.30;;;7.30;;
2620;SDS011;1320;48.128;11.592;2023-05-07T01:21:44;7.97;;;6.90;;
2620;SDS011;1320;48.128;11.592;2023-05-07T01:24:12;9.43;;;7.17;;
2620;SDS011;1320;48.128;11.592;2023-05-07T01:26:38;9.70;;;7.10;;
2620;SDS011;1320;48.128;11.592;2023-05-07T01:29:04;8.70;;;6.53;;
2620;SDS011;1320;48.128;11.592;2023-05-07T01:31:29;7.90;;;6.37;;
2620;SDS011;1320;48.128;11.592;2023-05-07T01:33:55;10.17;;;7.93;;
2620;SDS011;1320;48.128;11.592;2023-05-07T01:36:23;7.57;;;6.10;;
2620;SDS011;1320;48.128;11.592;2023-05-07T01:38:52;8.60;;;7.77;;
2620;SDS011;1320;48.128;11.592;2023-05-07T01:41:18;9.20;;;7.63;;
2620;SDS011;1320;48.128;11.592;2023-05-07T01:43:44;8.20;;;7.00;;
2620;SDS011;1320;48.128;11.592;2023-05-07T01:46:12;8.80;;;7.90;;
2620;SDS011;1320;48.128;11.592;2023-05-07T01:48:38;7.87;;;7.10;;
2620;SDS011;1320;48.128;11.592;2023-05-07T01:51:05;8.40;;;7.23;;
2620;SDS011;1320;48.128;11.592;2023-05-07T01:53:37;8.70;;;7.43;;
2620;SDS011;1320;48.128;11.592;2023-05-07T01:56:04;10.57;;;8.40;;
2620;SDS011;1320;48.128;11.592;2023-05-07T01:58:30;9.17;;;8.27;;
2620;SDS011;1320;48.128;11.592;2023-05-07T02:00:56;10.63;;;7.77;;
2620;SDS011;1320;48.128;11.592;2023-05-07T02:03:21;10.40;;;8.87;;
2620;SDS011;1320;48.128;11.592;2023-05-07T02:05:47;10.00;;;7.87;;
2620;SDS011;1320;48.128;11.592;2023-05-07T02:08:13;9.37;;;8.23;;
2620;SDS011;1320;48.128;11.592;2023-05-07T02:10:38;9.77;;;7.20;;
2620;SDS011;1320;48.128;11.592;2023-05-07T02:13:04;9.23;;;7.50;;
2620;SDS011;1320;48.128;11.592;2023-05-07T02:15:30;8.80;;;7.17;;
2620;SDS011;1320;48.128;11.592;2023-05-07T02:17:59;7.20;;;6.50;;
2620;SDS011;1320;48.128;11.592;2023-05-07T02:20:26;9.57;;;7.33;;
2620;SDS011;1320;48.128;11.592;2023-05-07T02:22:52;8.07;;;7.27;;
2620;SDS011;1320;48.128;11.592;2023-05-07T02:25:17;9.13;;;6.97;;
2620;SDS011;1320;48.128;11.592;2023-05-07T02:27:43;8.23;;;6.53;;
2620;SDS011;1320;48.128;11.592;2023-05-07T02:30:09;9.50;;;8.50;;
2620;SDS011;1320;48.128;11.592;2023-05-07T02:32:35;9.20;;;7.23;;
2620;SDS011;1320;48.128;11.592;2023-05-07T02:35:00;8.80;;;7.30;;
2620;SDS011;1320;48.128;11.592;2023-05-07T02:37:26;11.67;;;7.13;;
2620;SDS011;1320;48.128;11.592;2023-05-07T02:39:52;9.73;;;8.10;;
2620;SDS011;1320;48.128;11.592;2023-05-07T02:42:17;10.43;;;7.27;;
2620;SDS011;1320;48.128;11.592;2023-05-07T02:44:43;6.77;;;6.07;;
2620;SDS011;1320;48.128;11.592;2023-05-07T02:47:08;9.73;;;6.23;;
2620;SDS011;1320;48.128;11.592;2023-05-07T02:49:35;8.97;;;6.93;;
2620;SDS011;1320;48.128;11.592;2023-05-07T02:52:00;6.70;;;6.00;;
2620;SDS011;1320;48.128;11.592;2023-05-07T02:54:27;9.00;;;6.67;;
2620;SDS011;1320;48.128;11.592;2023-05-07T02:56:53;8.30;;;5.97;;
2620;SDS011;1320;48.128;11.592;2023-05-07T02:59:18;7.70;;;6.30;;
2620;SDS011;1320;48.128;11.592;2023-05-07T03:01:44;6.87;;;6.17;;
2620;SDS011;1320;48.128;11.592;2023-05-07T03:04:10;9.43;;;7.20;;
2620;SDS011;1320;48.128;11.592;2023-05-07T03:06:36;6.60;;;5.67;;
2620;SDS011;1320;48.128;11.592;2023-05-07T03:09:01;12.07;;;6.30;;
2620;SDS011;1320;48.128;11.592;2023-05-07T03:11:27;7.60;;;6.10;;
2620;SDS011;1320;48.128;11.592;2023-05-07T03:13:53;7.57;;;6.60;;
2620;SDS011;1320;48.128;11.592;2023-05-07T03:16:18;9.30;;;7.03;;
2620;SDS011;1320;48.128;11.592;2023-05-07T03:18:44;9.50;;;6.50;;
2620;SDS011;1320;48.128;11.592;2023-05-07T03:21:10;8.23;;;6.37;;
2620;SDS011;1320;48.128;11.592;2023-05-07T03:23:36;6.77;;;5.47;;
2620;SDS011;1320;48.128;11.592;2023-05-07T03:26:01;8.10;;;6.20;;
2620;SDS011;1320;48.128;11.592;2023-05-07T03:28:27;7.80;;;6.03;;
2620;SDS011;1320;48.128;11.592;2023-05-07T03:30:52;7.27;;;5.57;;
2620;SDS011;1320;48.128;11.592;2023-05-07T03:33:18;8.10;;;5.33;;
2620;SDS011;1320;48.128;11.592;2023-05-07T03:35:44;5.67;;;4.70;;
2620;SDS011;1320;48.128;11.592;2023-05-07T03:38:10;6.80;;;5.30;;
2620;SDS011;1320;48.128;11.592;2023-05-07T03:40:35;6.63;;;5.47;;
2620;SDS011;1320;48.128;11.592;2023-05-07T03:43:01;7.13;;;5.40;;
2620;SDS011;1320;48.128;11.592;2023-05-07T03:45:27;6.60;;;4.77;;
2620;SDS011;1320;48.128;11.592;2023-05-07T03:47:52;6.60;;;5.13;;
2620;SDS011;1320;48.128;11.592;2023-05-07T03:50:19;5.90;;;4.87;;
2620;SDS011;1320;48.128;11.592;2023-05-07T03:52:44;13.07;;;6.27;;
2620;SDS011;1320;48.128;11.592;2023-05-07T03:55:10;10.73;;;6.60;;
2620;SDS011;1320;48.128;11.592;2023-05-07T03:57:36;6.90;;;6.20;;
2620;SDS011;1320;48.128;11.592;2023-05-07T04:00:02;7.33;;;5.47;;
2620;SDS011;1320;48.128;11.592;2023-05-07T04:02:29;6.20;;;4.93;;
2620;SDS011;1320;48.128;11.592;2023-05-07T04:04:55;6.33;;;5.67;;
2620;SDS011;1320;48.128;11.592;2023-05-07T04:07:21;9.37;;;6.00;;
2620;SDS011;1320;48.128;11.592;2023-05-07T04:09:46;6.43;;;5.07;;
2620;SDS011;1320;48.128;11.592;2023-05-07T04:12:12;6.40;;;5.30;;
2620;SDS011;1320;48.128;11.592;2023-05-07T04:14:40;6.23;;;5.37;;
2620;SDS011;1320;48.128;11.592;2023-05-07T04:17:06;7.37;;;5.80;;
2620;SDS011;1320;48.128;11.592;2023-05-07T04:19:33;9.13;;;8.30;;
2620;SDS011;1320;48.128;11.592;2023-05-07T04:21:58;6.90;;;5.70;;
2620;SDS011;1320;48.128;11.592;2023-05-07T04:24:24;6.60;;;5.90;;
2620;SDS011;1320;48.128;11.592;2023-05-07T04:26:50;6.23;;;5.00;;
2620;SDS011;1320;48.128;11.592;2023-05-07T04:29:16;13.23;;;5.70;;
2620;SDS011;1320;48.128;11.592;2023-05-07T04:31:42;8.77;;;5.80;;
2620;SDS011;1320;48.128;11.592;2023-05-07T04:34:09;7.10;;;5.17;;
2620;SDS011;1320;48.128;11.592;2023-05-07T04:36:37;6.83;;;5.40;;
2620;SDS011;1320;48.128;11.592;2023-05-07T04:39:03;9.87;;;5.77;;
2620;SDS011;1320;48.128;11.592;2023-05-07T04:41:29;8.07;;;5.83;;
2620;SDS011;1320;48.128;11.592;2023-05-07T04:43:55;6.13;;;4.80;;
2620;SDS011;1320;48.128;11.592;2023-05-07T04:46:21;7.27;;;5.80;;
2620;SDS011;1320;48.128;11.592;2023-05-07T04:48:48;7.10;;;5.13;;
2620;SDS011;1320;48.128;11.592;2023-05-07T04:51:14;7.80;;;6.03;;
2620;SDS011;1320;48.128;11.592;2023-05-07T04:53:40;6.87;;;5.57;;
2620;SDS011;1320;48.128;11.592;2023-05-07T04:56:06;7.13;;;6.33;;
2620;SDS011;1320;48.128;11.592;2023-05-07T04:58:32;7.13;;;4.87;;
2620;SDS011;1320;48.128;11.592;2023-05-07T05:00:58;6.97;;;5.80;;
2620;SDS011;1320;48.128;11.592;2023-05-07T05:03:23;7.50;;;5.80;;
2620;SDS011;1320;48.128;11.592;2023-05-07T05:05:50;8.30;;;5.87;;
2620;SDS011;1320;48.128;11.592;2023-05-07T05:08:17;8.93;;;5.87;;
2620;SDS011;1320;48.128;11.592;2023-05-07T05:10:42;8.53;;;5.80;;
2620;SDS011;1320;48.128;11.592;2023-05-07T05:13:08;8.03;;;5.90;;
2620;SDS011;1320;48.128;11.592;2023-05-07T05:15:34;7.13;;;5.30;;
2620;SDS011;1320;48.128;11.592;2023-05-07T05:18:00;8.70;;;5.60;;
2620;SDS011;1320;48.128;11.592;2023-05-07T05:20:26;6.97;;;5.33;;
2620;SDS011;1320;48.128;11.592;2023-05-07T05:22:52;9.80;;;6.80;;
2620;SDS011;1320;48.128;11.592;2023-05-07T05:25:17;6.93;;;5.80;;
2620;SDS011;1320;48.128;11.592;2023-05-07T05:27:43;5.73;;;5.13;;
2620;SDS011;1320;48.128;11.592;2023-05-07T05:30:09;6.60;;;5.10;;
2620;SDS011;1320;48.128;11.592;2023-05-07T05:32:35;7.40;;;5.80;;
2620;SDS011;1320;48.128;11.592;2023-05-07T05:35:00;6.90;;;5.57;;
2620;SDS011;1320;48.128;11.592;2023-05-07T05:37:26;7.13;;;5.30;;
2620;SDS011;1320;48.128;11.592;2023-05-07T05:39:52;6.37;;;5.23;;
2620;SDS011;1320;48.128;11.592;2023-05-07T05:42:19;5.83;;;5.10;;
2620;SDS011;1320;48.128;11.592;2023-05-07T05:44:45;9.33;;;6.57;;
2620;SDS011;1320;48.128;11.592;2023-05-07T05:47:11;5.23;;;4.33;;
2620;SDS011;1320;48.128;11.592;2023-05-07T05:49:36;7.50;;;5.10;;
2620;SDS011;1320;48.128;11.592;2023-05-07T05:52:02;6.40;;;5.30;;
2620;SDS011;1320;48.128;11.592;2023-05-07T05:54:28;6.93;;;5.80;;
2620;SDS011;1320;48.128;11.592;2023-05-07T05:56:53;7.30;;;5.97;;
2620;SDS011;1320;48.128;11.592;2023-05-07T05:59:19;7.40;;;5.00;;
2620;SDS011;1320;48.128;11.592;2023-05-07T06:01:45;6.37;;;5.13;;
2620;SDS011;1320;48.128;11.592;2023-05-07T06:04:11;7.50;;;5.80;;
2620;SDS011;1320;48.128;11.592;2023-05-07T06:06:37;6.27;;;5.57;;
2620;SDS011;1320;48.128;11.592;2023-05-07T06:09:02;6.10;;;5.10;;
2620;SDS011;1320;48.128;11.592;2023-05-07T06:11:28;6.83;;;5.37;;
2620;SDS011;1320;48.128;11.592;2023-05-07T06:13:56;6.47;;;4.60;;
2620;SDS011;1320;48.128;11.592;2023-05-07T06:16:22;6.63;;;5.43;;
2620;SDS011;1320;48.128;11.592;2023-05-07T06:18:47;6.30;;;5.50;;
2620;SDS011;1320;48.128;11.592;2023-05-07T06:21:13;7.27;;;4.80;;
2620;SDS011;1320;48.128;11.592;2023-05-07T06:23:40;8.00;;;4.93;;
2620;SDS011;1320;48.128;11.592;2023-05-07T06:26:06;6.60;;;5.97;;
2620;SDS011;1320;48.128;11.592;2023-05-07T06:28:32;8.23;;;4.70;;
2620;SDS011;1320;48.128;11.592;2023-05-07T06:31:17;6.80;;;5.27;;
2620;SDS011;1320;48.128;11.592;2023-05-07T06:33:48;5.40;;;4.10;;
2620;SDS011;1320;48.128;11.592;2023-05-07T06:36:14;10.70;;;4.87;;
2620;SDS011;1320;48.128;11.592;2023-05-07T06:38:39;6.70;;;4.67;;
2620;SDS011;1320;48.128;11.592;2023-05-07T06:41:05;4.57;;;3.73;;
2620;SDS011;1320;48.128;11.592;2023-05-07T06:43:31;7.30;;;4.47;;
2620;SDS011;1320;48.128;11.592;2023-05-07T06:45:57;5.97;;;4.77;;
2620;SDS011;1320;48.128;11.592;2023-05-07T06:48:22;6.43;;;4.00;;
2620;SDS011;1320;48.128;11.592;2023-05-07T06:50:48;5.83;;;3.70;;
2620;SDS011;1320;48.128;11.592;2023-05-07T06:53:14;6.33;;;3.70;;
2620;SDS011;1320;48.128;11.592;2023-05-07T06:55:39;4.77;;;4.00;;
2620;SDS011;1320;48.128;11.592;2023-05-07T06:58:06;5.20;;;3.53;;
2620;SDS011;1320;48.128;11.592;2023-05-07T07:00:32;10.20;;;4.70;;
2620;SDS011;1320;48.128;11.592;2023-05-07T07:02:58;5.90;;;4.20;;
2620;SDS011;1320;48.128;11.592;2023-05-07T07:05:24;7.37;;;4.10;;
2620;SDS011;1320;48.128;11.592;2023-05-07T07:07:50;4.90;;;3.80;;
2620;SDS011;1320;48.128;11.592;2023-05-07T07:10:21;6.33;;;4.00;;
2620;SDS011;1320;48.128;11.592;2023-05-07T07:12:47;4.93;;;3.77;;
2620;SDS011;1320;48.128;11.592;2023-05-07T07:15:14;5.20;;;4.50;;
2620;SDS011;1320;48.128;11.592;2023-05-07T07:17:40;7.70;;;3.83;;
2620;SDS011;1320;48.128;11.592;2023-05-07T07:20:05;5.30;;;3.97;;
2620;SDS011;1320;48.128;11.592;2023-05-07T07:22:31;4.60;;;3.80;;
2620;SDS011;1320;48.128;11.592;2023-05-07T07:24:57;6.00;;;4.40;;
2620;SDS011;1320;48.128;11.592;2023-05-07T07:27:23;4.37;;;3.30;;
2620;SDS011;1320;48.128;11.592;2023-05-07T07:29:48;6.90;;;4.90;;
2620;SDS011;1320;48.128;11.592;2023-05-07T07:32:14;4.70;;;3.80;;
2620;SDS011;1320;48.128;11.592;2023-05-07T07:34:40;7.40;;;3.77;;
2620;SDS011;1320;48.128;11.592;2023-05-07T07:37:06;5.70;;;3.67;;
2620;SDS011;1320;48.128;11.592;2023-05-07T07:39:32;4.40;;;3.70;;
2620;SDS011;1320;48.128;11.592;2023-05-07T07:41:58;5.07;;;3.90;;
2620;SDS011;1320;48.128;11.592;2023-05-07T07:44:24;5.87;;;3.27;;
2620;SDS011;1320;48.128;11.592;2023-05-07T07:46:49;5.17;;;3.60;;
2620;SDS011;1320;48.128;11.592;2023-05-07T07:49:15;3.77;;;2.93;;
2620;SDS011;1320;48.128;11.592;2023-05-07T07:51:41;6.30;;;4.00;;
2620;SDS011;1320;48.128;11.592;2023-05-07T07:54:07;7.77;;;3.50;;
2620;SDS011;1320;48.128;11.592;2023-05-07T07:56:33;6.73;;;3.60;;
2620;SDS011;1320;48.128;11.592;2023-05-07T07:58:59;10.10;;;3.13;;
2620;SDS011;1320;48.128;11.592;2023-05-07T08:01:25;6.30;;;3.53;;
2620;SDS011;1320;48.128;11.592;2023-05-07T08:03:51;4.07;;;3.63;;
2620;SDS011;1320;48.128;11.592;2023-05-07T08:06:16;5.20;;;3.47;;
2620;SDS011;1320;48.128;11.592;2023-05-07T08:08:42;6.23;;;3.70;;
2620;SDS011;1320;48.128;11.592;2023-05-07T08:11:08;5.90;;;3.57;;
2620;SDS011;1320;48.128;11.592;2023-05-07T08:13:34;5.37;;;4.60;;
2620;SDS011;1320;48.128;11.592;2023-05-07T08:16:00;4.80;;;3.90;;
2620;SDS011;1320;48.128;11.592;2023-05-07T08:18:26;5.20;;;3.83;;
2620;SDS011;1320;48.128;11.592;2023-05-07T08:20:53;5.37;;;3.60;;
2620;SDS011;1320;48.128;11.592;2023-05-07T08:23:19;3.90;;;3.00;;
2620;SDS011;1320;48.128;11.592;2023-05-07T08:25:45;4.27;;;3.17;;
2620;SDS011;1320;48.128;11.592;2023-05-07T08:28:11;5.93;;;3.10;;
2620;SDS011;1320;48.128;11.592;2023-05-07T08:30:37;3.90;;;3.10;;
2620;SDS011;1320;48.128;11.592;2023-05-07T08:33:03;12.13;;;4.20;;
2620;SDS011;1320;48.128;11.592;2023-05-07T08:35:28;5.47;;;2.90;;
2620;SDS011;1320;48.128;11.592;2023-05-07T08:37:54;3.77;;;2.50;;
2620;SDS011;1320;48.128;11.592;2023-05-07T08:40:24;3.83;;;3.40;;
2620;SDS011;1320;48.128;11.592;2023-05-07T08:42:51;4.80;;;3.23;;
2620;SDS011;1320;48.128;11.592;2023-05-07T08:45:19;4.93;;;3.20;;
2620;SDS011;1320;48.128;11.592;2023-05-07T08:47:52;5.60;;;3.30;;
2620;SDS011;1320;48.128;11.592;2023-05-07T08:50:23;3.50;;;2.90;;
2620;SDS011;1320;48.128;11.592;2023-05-07T08:52:49;4.50;;;3.57;;
2620;SDS011;1320;48.128;11.592;2023-05-07T08:55:15;4.07;;;3.50;;
2620;SDS011;1320;48.128;11.592;2023-05-07T08:57:40;4.40;;;2.77;;
2620;SDS011;1320;48.128;11.592;2023-05-07T09:00:06;4.50;;;2.80;;
2620;SDS011;1320;48.128;11.592;2023-05-07T09:02:34;3.63;;;3.17;;
2620;SDS011;1320;48.128;11.592;2023-05-07T09:05:01;6.57;;;3.23;;
2620;SDS011;1320;48.128;11.592;2023-05-07T09:07:27;7.90;;;3.17;;
2620;SDS011;1320;48.128;11.592;2023-05-07T09:09:52;3.17;;;2.87;;
2620;SDS011;1320;48.128;11.592;2023-05-07T09:12:20;3.13;;;2.80;;
2620;SDS011;1320;48.128;11.592;2023-05-07T09:14:46;4.00;;;2.77;;
2620;SDS011;1320;48.128;11.592;2023-05-07T09:17:12;5.67;;;2.50;;
2620;SDS011;1320;48.128;11.592;2023-05-07T09:19:38;9.10;;;2.73;;
2620;SDS011;1320;48.128;11.592;2023-05-07T09:22:05;3.20;;;2.50;;
2620;SDS011;1320;48.128;11.592;2023-05-07T09:24:34;4.57;;;2.97;;
2620;SDS011;1320;48.128;11.592;2023-05-07T09:27:02;3.10;;;2.80;;
2620;SDS011;1320;48.128;11.592;2023-05-07T09:29:29;4.17;;;3.10;;
2620;SDS011;1320;48.128;11.592;2023-05-07T09:32:00;4.30;;;2.70;;
2620;SDS011;1320;48.128;11.592;2023-05-07T09:34:30;2.90;;;2.50;;
2620;SDS011;1320;48.128;11.592;2023-05-07T09:36:56;3.70;;;2.70;;
2620;SDS011;1320;48.128;11.592;2023-05-07T09:39:23;3.53;;;3.10;;
2620;SDS011;1320;48.128;11.592;2023-05-07T09:41:50;4.90;;;2.90;;
2620;SDS011;1320;48.128;11.592;2023-05-07T09:44:19;4.70;;;3.60;;
2620;SDS011;1320;48.128;11.592;2023-05-07T09:46:47;4.07;;;2.87;;
2620;SDS011;1320;48.128;11.592;2023-05-07T09:49:22;5.50;;;2.90;;
2620;SDS011;1320;48.128;11.592;2023-05-07T09:51:49;3.80;;;2.50;;
2620;SDS011;1320;48.128;11.592;2023-05-07T09:54:16;3.13;;;2.00;;
2620;SDS011;1320;48.128;11.592;2023-05-07T09:56:43;3.83;;;2.87;;
2620;SDS011;1320;48.128;11.592;2023-05-07T09:59:13;5.90;;;3.57;;
2620;SDS011;1320;48.128;11.592;2023-05-07T10:01:41;3.97;;;3.07;;
2620;SDS011;1320;48.128;11.592;2023-05-07T10:04:08;4.17;;;2.67;;
2620;SDS011;1320;48.128;11.592;2023-05-07T10:06:35;3.77;;;2.90;;
2620;SDS011;1320;48.128;11.592;2023-05-07T10:09:03;3.33;;;2.60;;
2620;SDS011;1320;48.128;11.592;2023-05-07T10:11:36;3.27;;;2.87;;
2620;SDS011;1320;48.128;11.592;2023-05-07T10:14:02;3.03;;;2.40;;
2620;SDS011;1320;48.128;11.592;2023-05-07T10:16:31;3.50;;;2.43;;
2620;SDS011;1320;48.128;11.592;2023-05-07T10:19:02;4.40;;;3.03;;
2620;SDS011;1320;48.128;11.592;2023-05-07T10:21:33;3.80;;;2.73;;
2620;SDS011;1320;48.128;11.592;2023-05-07T10:24:05;3.20;;;2.77;;
2620;SDS011;1320;48.128;11.592;2023-05-07T10:26:47;3.70;;;2.90;;
2620;SDS011;1320;48.128;11.592;2023-05-07T10:29:18;4.50;;;3.30;;
2620;SDS011;1320;48.128;11.592;2023-05-07T10:34:23;3.03;;;2.63;;
2620;SDS011;1320;48.128;11.592;2023-05-07T10:36:54;5.13;;;3.00;;
2620;SDS011;1320;48.128;11.592;2023-05-07T10:39:21;4.63;;;3.77;;
2620;SDS011;1320;48.128;11.592;2023-05-07T10:41:47;3.50;;;2.80;;
2620;SDS011;1320;48.128;11.592;2023-05-07T10:44:24;3.93;;;3.07;;
2620;SDS011;1320;48.128;11.592;2023-05-07T10:47:03;3.90;;;2.60;;
2620;SDS011;1320;48.128;11.592;2023-05-07T10:49:30;3.83;;;2.77;;
2620;SDS011;1320;48.128;11.592;2023-05-07T10:57:46;2.63;;;2.10;;
2620;SDS011;1320;48.128;11.592;2023-05-07T11:05:30;4.80;;;2.73;;
2620;SDS011;1320;48.128;11.592;2023-05-07T11:07:58;3.70;;;3.00;;
2620;SDS011;1320;48.128;11.592;2023-05-07T11:13:15;4.90;;;3.20;;
2620;SDS011;1320;48.128;11.592;2023-05-07T11:15:46;4.73;;;2.87;;
2620;SDS011;1320;48.128;11.592;2023-05-07T11:18:13;4.70;;;3.37;;
2620;SDS011;1320;48.128;11.592;2023-05-07T11:26:03;5.70;;;3.57;;
2620;SDS011;1320;48.128;11.592;2023-05-07T11:28:30;5.10;;;4.20;;
2620;SDS011;1320;48.128;11.592;2023-05-07T11:31:01;7.30;;;4.17;;
2620;SDS011;1320;48.128;11.592;2023-05-07T11:33:27;4.77;;;3.53;;
2620;SDS011;1320;48.128;11.592;2023-05-07T11:35:54;4.17;;;3.43;;
2620;SDS011;1320;48.128;11.592;2023-05-07T11:38:21;3.67;;;3.17;;
2620;SDS011;1320;48.128;11.592;2023-05-07T11:40:50;3.20;;;2.90;;
2620;SDS011;1320;48.128;11.592;2023-05-07T11:43:25;4.20;;;3.13;;
2620;SDS011;1320;48.128;11.592;2023-05-07T11:45:51;5.17;;;3.47;;
2620;SDS011;1320;48.128;11.592;2023-05-07T11:48:17;4.60;;;3.50;;
2620;SDS011;1320;48.128;11.592;2023-05-07T11:50:53;4.10;;;3.40;;
2620;SDS011;1320;48.128;11.592;2023-05-07T11:53:25;5.43;;;4.50;;
2620;SDS011;1320;48.128;11.592;2023-05-07T11:55:52;5.77;;;3.73;;
2620;SDS011;1320;48.128;11.592;2023-05-07T11:58:22;5.23;;;3.63;;
2620;SDS011;1320;48.128;11.592;2023-05-07T12:00:49;4.30;;;3.57;;
2620;SDS011;1320;48.128;11.592;2023-05-07T12:03:18;5.03;;;3.60;;
2620;SDS011;1320;48.128;11.592;2023-05-07T12:05:45;6.53;;;3.57;;
2620;SDS011;1320;48.128;11.592;2023-05-07T12:08:17;3.83;;;3.20;;
2620;SDS011;1320;48.128;11.592;2023-05-07T12:10:44;8.60;;;4.07;;
2620;SDS011;1320;48.128;11.592;2023-05-07T12:13:19;4.10;;;3.27;;
2620;SDS011;1320;48.128;11.592;2023-05-07T12:15:53;4.17;;;3.10;;
2620;SDS011;1320;48.128;11.592;2023-05-07T12:18:20;4.17;;;3.47;;
2620;SDS011;1320;48.128;11.592;2023-05-07T12:20:46;3.73;;;3.20;;
2620;SDS011;1320;48.128;11.592;2023-05-07T12:23:13;7.70;;;3.70;;
2620;SDS011;1320;48.128;11.592;2023-05-07T12:25:39;5.00;;;3.77;;
2620;SDS011;1320;48.128;11.592;2023-05-07T12:28:08;6.83;;;3.40;;
2620;SDS011;1320;48.128;11.592;2023-05-07T12:30:41;4.10;;;3.53;;
2620;SDS011;1320;48.128;11.592;2023-05-07T12:33:08;4.97;;;3.47;;
2620;SDS011;1320;48.128;11.592;2023-05-07T12:35:38;7.20;;;2.57;;
2620;SDS011;1320;48.128;11.592;2023-05-07T12:38:09;4.30;;;3.10;;
2620;SDS011;1320;48.128;11.592;2023-05-07T12:43:05;4.00;;;3.07;;
2620;SDS011;1320;48.128;11.592;2023-05-07T12:45:31;7.83;;;5.17;;
2620;SDS011;1320;48.128;11.592;2023-05-07T12:48:02;5.13;;;4.03;;
2620;SDS011;1320;48.128;11.592;2023-05-07T12:50:31;4.23;;;2.60;;
2620;SDS011;1320;48.128;11.592;2023-05-07T12:52:58;4.90;;;3.57;;
2620;SDS011;1320;48.128;11.592;2023-05-07T12:55:24;4.47;;;2.97;;
2620;SDS011;1320;48.128;11.592;2023-05-07T12:57:50;3.17;;;2.37;;
2620;SDS011;1320;48.128;11.592;2023-05-07T13:00:17;5.40;;;3.77;;
2620;SDS011;1320;48.128;11.592;2023-05-07T13:02:58;5.50;;;3.10;;
2620;SDS011;1320;48.128;11.592;2023-05-07T13:05:23;4.70;;;3.20;;
2620;SDS011;1320;48.128;11.592;2023-05-07T13:07:52;6.07;;;3.03;;
2620;SDS011;1320;48.128;11.592;2023-05-07T13:10:19;3.10;;;2.20;;
2620;SDS011;1320;48.128;11.592;2023-05-07T13:12:45;5.13;;;2.77;;
2620;SDS011;1320;48.128;11.592;2023-05-07T13:15:10;3.17;;;2.30;;
2620;SDS011;1320;48.128;11.592;2023-05-07T13:17:36;5.50;;;3.20;;
2620;SDS011;1320;48.128;11.592;2023-05-07T13:20:02;3.67;;;2.43;;
2620;SDS011;1320;48.128;11.592;2023-05-07T13:22:27;3.30;;;2.47;;
2620;SDS011;1320;48.128;11.592;2023-05-07T13:24:53;3.43;;;1.97;;
2620;SDS011;1320;48.128;11.592;2023-05-07T13:27:19;3.60;;;2.57;;
2620;SDS011;1320;48.128;11.592;2023-05-07T13:29:45;2.90;;;2.10;;
2620;SDS011;1320;48.128;11.592;2023-05-07T13:32:11;6.93;;;2.37;;
2620;SDS011;1320;48.128;11.592;2023-05-07T13:34:36;3.50;;;3.00;;
2620;SDS011;1320;48.128;11.592;2023-05-07T13:37:02;4.50;;;3.07;;
2620;SDS011;1320;48.128;11.592;2023-05-07T13:39:28;4.10;;;1.93;;
2620;SDS011;1320;48.128;11.592;2023-05-07T13:41:53;2.50;;;1.93;;
2620;SDS011;1320;48.128;11.592;2023-05-07T13:44:19;3.73;;;2.30;;
2620;SDS011;1320;48.128;11.592;2023-05-07T13:46:45;3.00;;;2.00;;
2620;SDS011;1320;48.128;11.592;2023-05-07T13:49:11;3.23;;;2.10;;
2620;SDS011;1320;48.128;11.592;2023-05-07T13:51:37;2.80;;;1.77;;
2620;SDS011;1320;48.128;11.592;2023-05-07T13:54:03;3.40;;;2.07;;
2620;SDS011;1320;48.128;11.592;2023-05-07T13:56:29;4.93;;;2.70;;
2620;SDS011;1320;48.128;11.592;2023-05-07T13:58:57;6.30;;;2.70;;
2620;SDS011;1320;48.128;11.592;2023-05-07T14:01:23;4.23;;;2.63;;
2620;SDS011;1320;48.128;11.592;2023-05-07T14:03:48;4.40;;;2.77;;
2620;SDS011;1320;48.128;11.592;2023-05-07T14:06:14;3.93;;;2.90;;
2620;SDS011;1320;48.128;11.592;2023-05-07T14:08:40;4.00;;;2.77;;
2620;SDS011;1320;48.128;11.592;2023-05-07T14:11:05;6.03;;;2.10;;
2620;SDS011;1320;48.128;11.592;2023-05-07T14:13:31;2.90;;;2.20;;
2620;SDS011;1320;48.128;11.592;2023-05-07T14:15:57;6.27;;;3.17;;
2620;SDS011;1320;48.128;11.592;2023-05-07T14:18:23;4.30;;;3.30;;
2620;SDS011;1320;48.128;11.592;2023-05-07T14:20:49;4.57;;;3.57;;
2620;SDS011;1320;48.128;11.592;2023-05-07T14:23:15;6.33;;;5.60;;
2620;SDS011;1320;48.128;11.592;2023-05-07T14:25:42;16.73;;;10.03;;
2620;SDS011;1320;48.128;11.592;2023-05-07T14:28:08;5.63;;;3.63;;
2620;SDS011;1320;48.128;11.592;2023-05-07T14:30:34;5.60;;;3.70;;
2620;SDS011;1320;48.128;11.592;2023-05-07T14:33:00;3.17;;;2.50;;
2620;SDS011;1320;48.128;11.592;2023-05-07T14:35:25;4.60;;;3.67;;
2620;SDS011;1320;48.128;11.592;2023-05-07T14:37:51;3.50;;;2.80;;
2620;SDS011;1320;48.128;11.592;2023-05-07T14:40:16;3.57;;;2.83;;
2620;SDS011;1320;48.128;11.592;2023-05-07T14:42:42;3.80;;;3.50;;
2620;SDS011;1320;48.128;11.592;2023-05-07T14:45:08;4.43;;;3.40;;
2620;SDS011;1320;48.128;11.592;2023-05-07T14:47:34;5.10;;;3.47;;
2620;SDS011;1320;48.128;11.592;2023-05-07T14:50:00;7.53;;;3.90;;
2620;SDS011;1320;48.128;11.592;2023-05-07T14:52:26;6.37;;;3.37;;
2620;SDS011;1320;48.128;11.592;2023-05-07T14:54:51;4.10;;;3.33;;
2620;SDS011;1320;48.128;11.592;2023-05-07T14:57:17;6.57;;;5.80;;
2620;SDS011;1320;48.128;11.592;2023-05-07T14:59:44;12.03;;;10.73;;
2620;SDS011;1320;48.128;11.592;2023-05-07T15:02:13;6.90;;;4.10;;
2620;SDS011;1320;48.128;11.592;2023-05-07T15:04:40;4.50;;;3.87;;
2620;SDS011;1320;48.128;11.592;2023-05-07T15:07:11;4.10;;;3.03;;
2620;SDS011;1320;48.128;11.592;2023-05-07T15:09:43;4.70;;;3.87;;
2620;SDS011;1320;48.128;11.592;2023-05-07T15:12:08;4.13;;;3.47;;
2620;SDS011;1320;48.128;11.592;2023-05-07T15:14:34;5.00;;;3.50;;
2620;SDS011;1320;48.128;11.592;2023-05-07T15:17:00;3.90;;;3.00;;
2620;SDS011;1320;48.128;11.592;2023-05-07T15:19:26;6.93;;;3.07;;
2620;SDS011;1320;48.128;11.592;2023-05-07T15:21:57;5.57;;;3.40;;